70°F Temp
61°F Dewpoint
73% Humidity
Temperature
10 MPH
16 KM/H
9 KTS
20°
North North
East

Wind Speed
Partly Cloudy
Conditions
Pressure 1014.92 (hPa) - 29.97 (in)
Visibility 10.0 (mi) - 16.1 (km)

Current Conditions
KSJC
Location 9(mi)
Metar :KSJC 160353Z 02009KT 10SM FEW016 FEW050 21/16 A2997 RMK AO2 SLP148 T02060156
Mon 15th July 19:53 pm

Airport
  Metar Aviation API Data Provided by https://www.checkwx.com/ PHP scripts by weather34.com ©2019